Pagina principale
METAR-TAF:

METAR-TAF

Aeroporti :

Perugia, Italia

Aeroporto di Perugia

latitudine: 43-05N, longitudine: 012-30E, altezza: 208 m

Osservazione

Il bollettino è stato emesso 3 ore e 7 minuti fa, alle 21:50 UTC
Vento 7 kt da sud
Temperature 12°C
Umidità 82%
Pressione 1008 hPa
Visibilità 10 km o più
Nuvoloso ad un'altezza di 5000 ft

METAR: LIRZ 162150Z 19007KT 9999 BKN050 12/09 Q1008

Ora: 01:57 (00:57 UTC)

Previsione

Il bollettino è stato emesso 7 ore e 57 minuti fa, alle 17:00 UTC
Previsione valida dal 16 alle 18 UTC al 17 alle 18 UTC
Vento 13 kt da sud-ovest
Visibilità 10 km o più
Nubi sparse ad un'altezza di 3000 ft
Temporaneamente
dal 16 alle 18 UTC al 16 alle 22 UTC
pioggia
Evoluzione graduale
dal 17 alle 00 UTC al 17 alle 03 UTC
Vento 18 kt da ovest/nord-ovest con raffiche fino a 30 kt

TAF: LIRZ 161700Z 1618/1718 23013KT 9999 SCT030 TEMPO 1618/1622 RA BECMG 1700/1703 29018G30KT

Osservazioni e previsioni meteorologiche di più di 4000 aeroporti (messaggi METAR e TAF).

Le stazioni disponibili sono rappresentate dai dischi gialli e rossi sulla carta.

Puntare il mouse per vedere il nome della stazione.

Clicca sopra per visualizzare le osservazioni e previsioni meteorologiche.

Per cambiare la mappa : fare clic sui pulsanti verdi con una croce nera per ingrandire, il pulsante verde con un trattino per diminuire, o sulla freccia verde per le mappe adiacenti.


METAR-TAF: